Time;durP1;ratioP1;P1;durP2;ratioP2;P2;SDS_P1;SDS_P2;PMS_P1;PMS_P2;Temp;Humidity;BMP_temperature;BMP_pressure;BME280_temperature;BME280_humidity;BME280_pressure;Samples;Min_cycle;Max_cycle;Signal;HPM_P1;HPM_P2
2022/03/13 00:02:02;;;;;;;10.38;8.80;;;6.70;53.00;;;;;;6333486;22;20219;-84
2022/03/13 00:04:29;;;;;;;10.50;7.88;;;6.70;53.00;;;;;;6332184;22;20195;-82
2022/03/13 00:06:56;;;;;;;11.60;6.90;;;6.70;53.10;;;;;;6332583;22;20187;-84
2022/03/13 00:09:25;;;;;;;11.45;8.07;;;6.70;53.20;;;;;;6331246;22;20181;-85
2022/03/13 00:11:54;;;;;;;9.77;7.53;;;6.70;53.20;;;;;;6318556;22;20198;-83
2022/03/13 00:14:24;;;;;;;10.23;7.57;;;6.70;53.10;;;;;;6317939;22;20243;-83
2022/03/13 00:16:51;;;;;;;14.35;8.50;;;6.70;53.20;;;;;;6319121;22;20177;-82
2022/03/13 00:19:19;;;;;;;11.70;8.77;;;6.60;53.30;;;;;;6318140;22;20210;-84
2022/03/13 00:21:51;;;;;;;10.80;7.53;;;6.60;53.50;;;;;;6318374;22;20196;-84
2022/03/13 00:24:20;;;;;;;12.40;7.00;;;6.50;53.40;;;;;;6316895;22;20175;-83
2022/03/13 00:26:47;;;;;;;8.70;7.72;;;6.60;53.40;;;;;;6318428;22;20175;-83
2022/03/13 00:29:16;;;;;;;10.73;8.00;;;6.60;53.50;;;;;;6316969;22;20219;-82
2022/03/13 00:31:43;;;;;;;11.73;8.35;;;6.40;53.60;;;;;;6318129;22;20262;-83
2022/03/13 00:34:10;;;;;;;12.43;7.20;;;6.40;53.70;;;;;;6316674;22;20197;-83
2022/03/13 00:36:37;;;;;;;10.45;6.97;;;6.40;53.80;;;;;;6318575;22;20197;-83
2022/03/13 00:39:04;;;;;;;9.32;6.60;;;6.40;53.90;;;;;;6316578;22;20196;-82
2022/03/13 00:41:31;;;;;;;13.70;7.13;;;6.30;53.90;;;;;;6315115;22;20201;-84
2022/03/13 00:43:58;;;;;;;11.75;8.20;;;6.40;54.10;;;;;;6315263;22;20256;-83
2022/03/13 00:46:26;;;;;;;9.73;7.50;;;6.40;54.20;;;;;;6314648;22;20201;-82
2022/03/13 00:48:53;;;;;;;8.20;6.72;;;6.30;54.80;;;;;;6314114;22;20179;-83
2022/03/13 00:51:20;;;;;;;12.02;7.38;;;6.30;54.30;;;;;;6313594;22;20217;-83
2022/03/13 00:53:47;;;;;;;12.60;7.70;;;6.30;54.40;;;;;;6315455;22;20199;-84
2022/03/13 00:56:14;;;;;;;9.55;7.35;;;6.30;54.20;;;;;;6314145;22;20210;-84
2022/03/13 00:58:44;;;;;;;11.77;7.97;;;6.10;54.10;;;;;;6316664;22;20177;-84
2022/03/13 01:01:12;;;;;;;12.57;7.63;;;6.20;54.20;;;;;;6315889;22;20201;-82
2022/03/13 01:03:51;;;;;;;11.60;7.40;;;6.10;54.10;;;;;;6319745;22;20186;-83
2022/03/13 01:06:19;;;;;;;9.65;7.57;;;6.20;54.30;;;;;;6319483;22;20192;-83
2022/03/13 01:08:47;;;;;;;8.68;7.78;;;6.10;54.30;;;;;;6317807;22;20197;-85
2022/03/13 01:11:15;;;;;;;11.63;8.95;;;6.20;54.30;;;;;;6316379;22;20225;-85
2022/03/13 01:13:42;;;;;;;13.82;7.60;;;6.10;54.30;;;;;;6317062;22;20182;-82
2022/03/13 01:16:15;;;;;;;10.98;8.73;;;6.10;55.00;;;;;;6316811;22;20256;-84
2022/03/13 01:18:46;;;;;;;9.00;7.10;;;6.00;54.30;;;;;;6320105;22;20181;-84
2022/03/13 01:21:14;;;;;;;8.88;7.57;;;6.00;54.40;;;;;;6319789;22;20201;-82
2022/03/13 01:23:42;;;;;;;9.73;7.43;;;6.00;54.50;;;;;;6319606;22;20174;-83
2022/03/13 01:26:36;;;;;;;10.45;7.13;;;6.00;54.60;;;;;;6318988;22;20185;-84
2022/03/13 01:29:05;;;;;;;12.77;7.85;;;6.00;54.60;;;;;;6322214;22;20200;-82
2022/03/13 01:31:35;;;;;;;9.45;7.53;;;5.90;54.60;;;;;;6320948;22;20201;-83
2022/03/13 01:34:02;;;;;;;11.40;8.27;;;5.90;54.70;;;;;;6322164;22;20289;-83
2022/03/13 01:36:31;;;;;;;10.40;7.20;;;5.90;54.80;;;;;;6321851;22;20664;-83
2022/03/13 01:38:59;;;;;;;8.07;7.15;;;5.80;54.70;;;;;;6321477;22;20201;-83
2022/03/13 01:41:28;;;;;;;9.50;8.18;;;5.80;54.80;;;;;;6323384;22;20241;-83
2022/03/13 01:43:55;;;;;;;8.57;6.78;;;5.70;54.90;;;;;;6322897;22;20170;-83
2022/03/13 01:46:22;;;;;;;13.20;8.52;;;5.70;55.00;;;;;;6322394;22;20566;-82
2022/03/13 01:48:54;;;;;;;19.20;10.80;;;5.70;55.00;;;;;;6323530;22;20196;-83
2022/03/13 01:51:22;;;;;;;15.15;9.30;;;5.70;55.00;;;;;;6321579;22;20281;-83
2022/03/13 01:53:54;;;;;;;12.82;9.85;;;5.70;55.00;;;;;;6318292;22;20211;-83
2022/03/13 01:56:21;;;;;;;9.80;8.15;;;5.80;55.10;;;;;;6319430;22;20590;-83
2022/03/13 01:58:51;;;;;;;12.73;8.60;;;5.70;55.10;;;;;;6319004;22;20178;-84
2022/03/13 02:01:18;;;;;;;11.38;8.90;;;5.60;54.80;;;;;;6319112;22;20595;-82
2022/03/13 02:03:46;;;;;;;11.00;7.75;;;5.70;55.20;;;;;;6320203;22;20205;-84
2022/03/13 02:06:13;;;;;;;10.07;7.90;;;5.60;55.00;;;;;;6318340;22;20221;-82
2022/03/13 02:08:40;;;;;;;12.57;8.95;;;5.50;54.80;;;;;;6318643;22;20237;-84
2022/03/13 02:11:09;;;;;;;14.30;9.25;;;5.50;55.00;;;;;;6323666;22;20232;-83
2022/03/13 02:13:36;;;;;;;11.95;8.25;;;5.50;55.10;;;;;;6325481;22;20233;-83
2022/03/13 02:16:03;;;;;;;16.10;8.50;;;5.50;55.30;;;;;;6325465;22;20174;-83
2022/03/13 02:18:30;;;;;;;10.85;8.75;;;5.40;55.20;;;;;;6325459;22;20660;-83
2022/03/13 02:20:57;;;;;;;13.85;7.65;;;5.40;55.20;;;;;;6323304;22;20228;-84
2022/03/13 02:23:28;;;;;;;13.90;8.50;;;5.30;55.50;;;;;;6323051;22;20209;-83
2022/03/13 02:25:57;;;;;;;13.27;8.35;;;5.30;55.60;;;;;;6322230;22;20166;-82
2022/03/13 02:28:27;;;;;;;9.43;7.72;;;5.20;55.80;;;;;;6320296;22;20185;-83
2022/03/13 02:30:58;;;;;;;10.90;8.10;;;5.20;55.90;;;;;;6318164;22;20239;-83
2022/03/13 02:33:25;;;;;;;11.15;8.25;;;5.20;56.00;;;;;;6320620;22;20158;-82
2022/03/13 02:35:55;;;;;;;9.38;8.38;;;5.30;56.40;;;;;;6319772;22;20209;-83
2022/03/13 02:38:23;;;;;;;9.40;7.63;;;5.10;56.30;;;;;;6322855;22;20232;-82
2022/03/13 02:40:53;;;;;;;12.10;9.43;;;5.20;56.40;;;;;;6324759;22;20225;-82
2022/03/13 02:43:21;;;;;;;12.55;8.45;;;5.20;56.30;;;;;;6327358;22;20192;-83
2022/03/13 02:45:48;;;;;;;13.80;9.23;;;5.10;56.40;;;;;;6319925;22;20180;-82
2022/03/13 02:48:16;;;;;;;8.95;7.38;;;5.10;56.50;;;;;;6324124;22;20178;-82
2022/03/13 02:50:43;;;;;;;13.15;8.52;;;5.10;56.50;;;;;;6327678;22;20247;-82
2022/03/13 02:53:10;;;;;;;9.65;7.13;;;5.10;56.50;;;;;;6322025;22;20264;-83
2022/03/13 02:55:37;;;;;;;12.65;8.27;;;5.00;56.50;;;;;;6317155;22;20204;-83
2022/03/13 02:58:06;;;;;;;12.52;9.38;;;5.00;56.80;;;;;;6316544;22;20201;-83
2022/03/13 03:00:43;;;;;;;16.73;10.45;;;4.90;56.70;;;;;;6314519;22;20821;-83
2022/03/13 03:03:12;;;;;;;13.32;8.88;;;4.90;56.80;;;;;;6315766;22;20169;-83
2022/03/13 03:05:38;;;;;;;14.30;9.50;;;4.70;57.10;;;;;;6316582;22;20177;-82
2022/03/13 03:08:07;;;;;;;13.18;9.55;;;4.80;57.90;;;;;;6317878;22;20193;-83
2022/03/13 03:10:34;;;;;;;9.38;8.38;;;4.80;57.20;;;;;;6315341;22;20194;-81
2022/03/13 03:13:01;;;;;;;10.55;7.85;;;4.70;57.20;;;;;;6316592;22;20264;-82
2022/03/13 03:15:29;;;;;;;8.27;7.07;;;4.80;57.50;;;;;;6315057;22;20262;-82
2022/03/13 03:17:57;;;;;;;18.40;8.63;;;4.70;57.40;;;;;;6315414;22;20237;-82
2022/03/13 03:20:24;;;;;;;10.75;8.15;;;4.70;57.40;;;;;;6314654;22;20721;-82
2022/03/13 03:22:53;;;;;;;12.88;8.70;;;4.70;57.50;;;;;;6314216;22;20682;-82
2022/03/13 03:25:23;;;;;;;12.18;8.02;;;4.60;57.60;;;;;;6313775;22;20209;-83
2022/03/13 03:27:50;;;;;;;14.85;9.07;;;4.60;57.70;;;;;;6315861;22;20162;-83
2022/03/13 03:30:20;;;;;;;10.02;7.60;;;4.60;57.80;;;;;;6315525;22;20248;-82
2022/03/13 03:32:49;;;;;;;13.10;8.55;;;4.60;57.90;;;;;;6315234;22;20249;-83
2022/03/13 03:35:17;;;;;;;11.90;8.10;;;4.70;58.10;;;;;;6314748;22;20516;-83
2022/03/13 03:37:44;;;;;;;10.45;8.05;;;4.60;58.10;;;;;;6316104;22;20228;-82
2022/03/13 03:40:12;;;;;;;12.27;8.50;;;4.50;58.10;;;;;;6315874;22;20189;-83
2022/03/13 03:42:39;;;;;;;11.95;7.50;;;4.50;58.20;;;;;;6315826;22;20540;-82
2022/03/13 03:45:08;;;;;;;13.43;8.10;;;4.50;58.30;;;;;;6315044;22;20628;-83
2022/03/13 03:47:34;;;;;;;15.73;9.32;;;4.50;58.40;;;;;;6316317;22;20185;-82
2022/03/13 03:50:04;;;;;;;11.82;8.40;;;4.50;58.30;;;;;;6314214;22;20213;-83
2022/03/13 03:52:31;;;;;;;12.10;9.20;;;4.50;58.40;;;;;;6314691;22;20174;-83
2022/03/13 03:54:58;;;;;;;15.20;9.18;;;4.50;58.50;;;;;;6314676;22;20238;-83
2022/03/13 03:57:25;;;;;;;10.30;7.85;;;4.50;58.80;;;;;;6314656;22;20219;-83
2022/03/13 03:59:51;;;;;;;14.93;9.23;;;4.40;58.70;;;;;;6315506;22;20209;-83
2022/03/13 04:02:18;;;;;;;22.42;9.40;;;4.40;58.60;;;;;;6315650;22;20190;-83
2022/03/13 04:04:46;;;;;;;11.07;7.82;;;4.50;58.70;;;;;;6316775;22;20178;-82
2022/03/13 04:07:14;;;;;;;10.95;8.20;;;4.50;58.60;;;;;;6316528;22;20559;-83
2022/03/13 04:09:41;;;;;;;9.90;8.05;;;4.40;58.50;;;;;;6316015;22;20181;-84
2022/03/13 04:12:09;;;;;;;11.05;8.50;;;4.40;58.80;;;;;;6317811;22;20219;-83
2022/03/13 04:14:36;;;;;;;12.18;8.02;;;4.30;58.90;;;;;;6317236;22;20236;-83
2022/03/13 04:17:04;;;;;;;13.13;8.68;;;4.30;59.00;;;;;;6324935;22;20184;-82
2022/03/13 04:19:31;;;;;;;15.93;9.07;;;4.20;59.10;;;;;;6320236;22;20189;-83
2022/03/13 04:21:58;;;;;;;13.40;8.90;;;4.20;59.20;;;;;;6316210;22;20679;-82
2022/03/13 04:24:29;;;;;;;13.60;8.13;;;4.20;59.10;;;;;;6317375;22;20205;-82
2022/03/13 04:26:57;;;;;;;14.48;8.65;;;4.20;59.20;;;;;;6314870;22;20166;-82
2022/03/13 04:29:24;;;;;;;10.48;8.18;;;4.30;59.20;;;;;;6318524;22;20510;-82
2022/03/13 04:31:52;;;;;;;11.15;7.97;;;4.20;59.10;;;;;;6316586;22;20200;-81
2022/03/13 04:34:20;;;;;;;12.50;9.05;;;4.20;59.20;;;;;;6318514;22;20173;-82
2022/03/13 04:36:47;;;;;;;14.38;9.07;;;4.30;59.90;;;;;;6316646;22;20538;-81
2022/03/13 04:39:15;;;;;;;11.88;8.68;;;4.20;59.30;;;;;;6318862;22;20229;-81
2022/03/13 04:41:43;;;;;;;9.88;8.43;;;4.20;59.30;;;;;;6318579;22;20257;-82
2022/03/13 04:44:14;;;;;;;12.77;9.15;;;4.20;59.40;;;;;;6322237;22;20178;-81
2022/03/13 04:46:42;;;;;;;10.57;7.45;;;4.30;59.40;;;;;;6323751;22;20146;-82
2022/03/13 04:49:09;;;;;;;10.90;7.38;;;4.20;59.40;;;;;;6320837;22;20256;-82
2022/03/13 04:51:36;;;;;;;12.73;9.63;;;4.20;59.40;;;;;;6314429;22;20251;-83
2022/03/13 04:54:03;;;;;;;12.65;8.35;;;4.10;59.50;;;;;;6314647;22;20181;-82
2022/03/13 04:56:32;;;;;;;10.13;7.75;;;4.10;59.70;;;;;;6316037;22;20709;-82
2022/03/13 04:59:00;;;;;;;12.20;8.05;;;4.10;59.70;;;;;;6316540;22;20231;-83
2022/03/13 05:01:27;;;;;;;10.60;7.88;;;4.10;59.50;;;;;;6314933;22;20223;-82
2022/03/13 05:03:54;;;;;;;14.93;8.52;;;4.00;59.50;;;;;;6323293;22;20786;-82
2022/03/13 05:06:21;;;;;;;13.45;7.90;;;4.00;59.60;;;;;;6324001;22;20177;-82
2022/03/13 05:08:49;;;;;;;13.77;9.50;;;3.90;59.70;;;;;;6325622;22;20563;-82
2022/03/13 05:11:17;;;;;;;10.75;8.15;;;3.80;59.80;;;;;;6322553;22;20279;-82
2022/03/13 05:13:44;;;;;;;13.77;8.65;;;3.80;59.80;;;;;;6323099;22;20177;-82
2022/03/13 05:16:12;;;;;;;12.63;8.98;;;3.80;59.90;;;;;;6316069;22;20208;-82
2022/03/13 05:18:39;;;;;;;12.20;8.27;;;3.80;59.90;;;;;;6316504;22;20492;-82
2022/03/13 05:21:06;;;;;;;9.10;7.50;;;3.70;60.00;;;;;;6314131;22;20636;-82
2022/03/13 05:23:33;;;;;;;14.70;8.73;;;3.70;60.10;;;;;;6315143;22;20257;-82
2022/03/13 05:26:00;;;;;;;16.88;8.40;;;3.70;60.00;;;;;;6315694;22;20195;-83
2022/03/13 05:28:27;;;;;;;13.60;9.38;;;3.70;60.00;;;;;;6316142;22;20203;-81
2022/03/13 05:30:53;;;;;;;12.38;8.30;;;3.80;59.70;;;;;;6315244;22;20268;-82
2022/03/13 05:33:22;;;;;;;12.80;7.72;;;3.70;59.70;;;;;;6314120;22;20256;-81
2022/03/13 05:35:48;;;;;;;15.75;9.00;;;3.70;59.50;;;;;;6314359;22;20185;-82
2022/03/13 05:38:15;;;;;;;10.73;8.13;;;3.80;59.40;;;;;;6318268;22;20170;-82
2022/03/13 05:40:42;;;;;;;12.93;8.82;;;3.80;59.30;;;;;;6316614;22;20283;-82
2022/03/13 05:43:11;;;;;;;11.52;8.75;;;3.80;59.40;;;;;;6318804;22;20184;-81
2022/03/13 05:45:39;;;;;;;12.75;8.93;;;3.70;59.00;;;;;;6319063;22;20221;-82
2022/03/13 05:48:08;;;;;;;15.88;8.95;;;3.70;58.90;;;;;;6319329;22;20181;-82
2022/03/13 05:50:37;;;;;;;15.30;9.43;;;3.70;59.00;;;;;;6323743;22;20209;-82
2022/03/13 05:53:05;;;;;;;15.20;7.47;;;3.80;58.90;;;;;;6324129;22;20204;-82
2022/03/13 05:55:32;;;;;;;13.48;7.65;;;3.80;58.70;;;;;;6316755;22;20229;-83
2022/03/13 05:58:04;;;;;;;13.13;8.93;;;3.70;58.80;;;;;;6315692;22;20209;-82
2022/03/13 06:00:32;;;;;;;9.13;7.03;;;3.70;58.70;;;;;;6316704;22;20194;-84
2022/03/13 06:03:00;;;;;;;12.40;9.38;;;3.70;58.70;;;;;;6317828;22;20162;-83
2022/03/13 06:05:27;;;;;;;12.30;8.10;;;3.70;58.60;;;;;;6317509;22;20189;-82
2022/03/13 06:07:56;;;;;;;12.52;7.40;;;3.70;58.50;;;;;;6332410;22;20180;-82
2022/03/13 06:10:30;;;;;;;13.20;9.25;;;3.70;58.70;;;;;;6335589;22;20181;-82
2022/03/13 06:12:59;;;;;;;9.23;7.80;;;3.70;59.10;;;;;;6337268;22;20164;-82
2022/03/13 06:15:29;;;;;;;14.55;8.77;;;3.80;58.40;;;;;;6336841;22;20166;-83
2022/03/13 06:17:57;;;;;;;12.30;8.43;;;3.80;58.40;;;;;;6337318;22;20149;-82
2022/03/13 06:20:35;;;;;;;11.40;8.30;;;3.80;58.30;;;;;;6336448;22;20225;-82
2022/03/13 06:23:16;;;;;;;12.45;7.95;;;3.80;58.00;;;;;;6335948;22;20171;-82
2022/03/13 06:25:52;;;;;;;9.98;7.60;;;3.90;57.80;;;;;;6336185;22;20164;-83
2022/03/13 06:28:21;;;;;;;19.63;8.30;;;4.00;57.60;;;;;;6337528;22;20176;-81
2022/03/13 06:30:49;;;;;;;10.50;7.18;;;3.90;57.60;;;;;;6336282;22;20194;-82
2022/03/13 06:33:17;;;;;;;14.15;7.65;;;3.90;57.60;;;;;;6336502;22;20223;-82
2022/03/13 06:35:44;;;;;;;13.45;8.55;;;4.20;57.90;;;;;;6336107;22;20176;-82
2022/03/13 06:38:11;;;;;;;22.10;10.32;;;4.10;57.60;;;;;;6333195;22;20174;-81
2022/03/13 06:40:39;;;;;;;9.75;8.25;;;4.10;57.40;;;;;;6325734;22;20201;-81
2022/03/13 06:43:07;;;;;;;9.43;7.50;;;4.20;57.20;;;;;;6324978;22;20208;-81
2022/03/13 06:46:28;;;;;;;8.88;7.13;;;4.30;57.20;;;;;;6331706;22;20188;-82
2022/03/13 06:48:55;;;;;;;10.65;8.10;;;4.40;56.70;;;;;;6329700;22;20183;-82
2022/03/13 06:51:22;;;;;;;15.60;9.00;;;4.60;56.50;;;;;;6329302;22;20194;-83
2022/03/13 06:53:49;;;;;;;13.18;8.20;;;5.20;56.20;;;;;;6328815;22;20194;-82
2022/03/13 06:56:18;;;;;;;13.93;8.07;;;6.10;54.70;;;;;;6328271;22;20206;-82
2022/03/13 06:58:45;;;;;;;10.65;8.00;;;7.10;53.40;;;;;;6327884;22;20197;-83
2022/03/13 07:01:12;;;;;;;9.55;7.72;;;8.00;51.60;;;;;;6329500;22;20231;-84
2022/03/13 07:03:39;;;;;;;9.40;7.68;;;8.40;49.70;;;;;;6329957;22;20200;-82
2022/03/13 07:06:06;;;;;;;13.55;7.82;;;9.20;49.10;;;;;;6331005;22;20169;-83
2022/03/13 07:09:29;;;;;;;8.73;7.30;;;9.70;47.60;;;;;;6329233;22;20192;-83
2022/03/13 07:12:14;;;;;;;10.40;7.60;;;10.30;45.70;;;;;;6322783;22;20222;-82
2022/03/13 07:14:45;;;;;;;11.50;8.27;;;10.50;44.70;;;;;;6327674;22;20216;-82
2022/03/13 07:17:12;;;;;;;9.50;7.60;;;10.60;44.30;;;;;;6320937;22;20216;-83
2022/03/13 07:19:40;;;;;;;15.00;9.75;;;10.40;43.80;;;;;;6318574;22;20517;-83
2022/03/13 07:22:10;;;;;;;10.98;8.25;;;10.60;44.10;;;;;;6318863;22;20208;-82
2022/03/13 07:24:37;;;;;;;11.00;8.65;;;10.90;44.00;;;;;;6318123;22;20180;-80
2022/03/13 07:27:04;;;;;;;10.48;8.10;;;10.90;43.30;;;;;;6316745;22;20614;-81
2022/03/13 07:29:33;;;;;;;10.80;7.35;;;11.10;43.10;;;;;;6320966;22;20182;-81
2022/03/13 07:32:01;;;;;;;10.93;7.57;;;11.20;43.10;;;;;;6314990;22;20221;-82
2022/03/13 07:34:28;;;;;;;9.90;8.90;;;11.70;42.60;;;;;;6315691;22;20219;-81
2022/03/13 07:36:56;;;;;;;13.02;8.75;;;12.20;42.50;;;;;;6315512;22;20180;-82
2022/03/13 07:39:24;;;;;;;11.65;9.25;;;12.50;41.80;;;;;;6318151;22;20174;-83
2022/03/13 07:41:56;;;;;;;12.38;8.88;;;12.60;41.20;;;;;;6318612;22;20201;-83
2022/03/13 07:44:24;;;;;;;12.68;9.77;;;12.40;41.00;;;;;;6320230;22;20233;-85
2022/03/13 07:46:52;;;;;;;12.50;9.35;;;13.00;41.40;;;;;;6318177;22;20157;-83
2022/03/13 07:49:20;;;;;;;10.93;8.10;;;13.60;40.80;;;;;;6320336;22;20199;-83
2022/03/13 07:51:48;;;;;;;13.35;8.18;;;14.50;39.80;;;;;;6318732;22;20213;-84
2022/03/13 07:54:20;;;;;;;13.88;9.10;;;14.90;39.10;;;;;;6320673;22;20171;-82
2022/03/13 07:56:47;;;;;;;9.65;8.35;;;15.50;38.80;;;;;;6321132;22;20198;-84
2022/03/13 07:59:15;;;;;;;13.60;9.93;;;15.50;37.70;;;;;;6321505;22;20183;-82
2022/03/13 08:01:42;;;;;;;14.80;9.57;;;15.20;37.70;;;;;;6319066;22;20946;-84
2022/03/13 08:04:10;;;;;;;12.82;8.88;;;15.10;38.40;;;;;;6317286;22;20216;-83
2022/03/13 08:06:39;;;;;;;12.13;8.20;;;15.00;38.30;;;;;;6318954;22;20169;-83
2022/03/13 08:09:07;;;;;;;10.20;8.00;;;15.60;38.60;;;;;;6318622;22;20169;-83
2022/03/13 08:11:35;;;;;;;10.90;9.47;;;15.60;38.00;;;;;;6317682;22;20423;-85
2022/03/13 08:14:03;;;;;;;9.97;8.20;;;15.60;37.90;;;;;;6319084;22;20414;-84
2022/03/13 08:16:30;;;;;;;12.50;9.50;;;15.60;37.80;;;;;;6316450;22;20435;-83
2022/03/13 08:18:58;;;;;;;10.70;9.20;;;15.80;37.90;;;;;;6317354;22;20403;-83
2022/03/13 08:21:27;;;;;;;15.00;9.90;;;16.20;37.40;;;;;;6316790;22;20497;-83
2022/03/13 08:23:55;;;;;;;11.30;8.33;;;16.30;36.80;;;;;;6318104;22;20415;-82
2022/03/13 08:26:23;;;;;;;11.13;9.13;;;16.30;37.00;;;;;;6320576;22;20415;-82
2022/03/13 08:28:56;;;;;;;13.53;9.17;;;16.60;36.70;;;;;;6319948;22;20419;-84
2022/03/13 08:31:23;;;;;;;12.50;9.50;;;16.40;36.30;;;;;;6322798;22;20437;-84
2022/03/13 08:33:51;;;;;;;11.83;8.77;;;17.00;36.70;;;;;;6319784;22;20418;-83
2022/03/13 08:36:18;;;;;;;9.47;8.37;;;17.50;36.20;;;;;;6323919;22;20487;-84
2022/03/13 08:38:46;;;;;;;9.87;8.60;;;17.40;35.30;;;;;;6321790;22;20427;-83
2022/03/13 08:41:13;;;;;;;9.93;9.00;;;17.60;35.80;;;;;;6318284;22;20439;-83
2022/03/13 08:43:40;;;;;;;14.77;10.40;;;17.60;36.00;;;;;;6320140;22;20404;-83
2022/03/13 08:46:08;;;;;;;13.40;9.53;;;17.10;36.00;;;;;;6318772;22;20495;-82
2022/03/13 08:48:35;;;;;;;9.77;8.77;;;17.50;35.80;;;;;;6318439;22;20461;-83
2022/03/13 08:51:03;;;;;;;10.23;7.70;;;17.40;35.20;;;;;;6320528;22;20445;-82
2022/03/13 08:53:30;;;;;;;9.80;8.50;;;18.00;34.80;;;;;;6329646;22;20442;-83
2022/03/13 08:55:58;;;;;;;11.20;8.80;;;18.30;34.30;;;;;;6324798;22;20396;-83
2022/03/13 08:58:25;;;;;;;13.77;8.07;;;18.30;33.90;;;;;;6312227;22;20466;-83
2022/03/13 09:00:53;;;;;;;12.00;8.87;;;18.00;33.70;;;;;;6321342;22;20427;-83
2022/03/13 09:03:20;;;;;;;12.07;9.47;;;17.90;34.00;;;;;;6324727;22;20408;-86
2022/03/13 09:05:48;;;;;;;12.90;9.70;;;17.80;33.90;;;;;;6330647;22;20408;-83
2022/03/13 09:08:15;;;;;;;12.90;10.13;;;18.10;33.80;;;;;;6333590;22;20717;-82
2022/03/13 09:10:43;;;;;;;10.23;9.00;;;17.40;33.50;;;;;;6332932;22;20428;-85
2022/03/13 09:13:13;;;;;;;11.37;9.07;;;17.20;34.00;;;;;;6333506;22;20443;-84
2022/03/13 09:15:40;;;;;;;13.50;8.80;;;17.60;34.40;;;;;;6334086;22;20471;-84
2022/03/13 09:18:07;;;;;;;13.17;9.80;;;17.60;34.00;;;;;;6334642;22;20395;-84
2022/03/13 09:20:36;;;;;;;12.40;9.33;;;17.90;34.40;;;;;;6332644;22;20412;-86
2022/03/13 09:23:03;;;;;;;10.53;8.63;;;17.70;34.50;;;;;;6328500;22;20379;-86
2022/03/13 09:25:31;;;;;;;8.83;8.00;;;17.70;34.00;;;;;;6327915;22;20433;-84
2022/03/13 09:27:57;;;;;;;10.23;9.17;;;18.20;34.50;;;;;;6317475;22;20606;-85
2022/03/13 09:30:26;;;;;;;10.97;9.10;;;18.60;34.00;;;;;;6325260;22;20432;-84
2022/03/13 09:32:53;;;;;;;11.83;9.40;;;19.00;33.60;;;;;;6325655;22;20457;-84
2022/03/13 09:35:20;;;;;;;10.90;9.73;;;18.70;33.40;;;;;;6315946;22;20400;-83
2022/03/13 09:37:49;;;;;;;9.33;8.33;;;18.90;34.20;;;;;;6315850;22;20449;-84
2022/03/13 09:40:18;;;;;;;9.30;8.30;;;19.30;33.60;;;;;;6317237;22;20421;-85
2022/03/13 09:42:48;;;;;;;9.27;7.93;;;19.40;33.30;;;;;;6315998;22;20412;-83
2022/03/13 09:45:16;;;;;;;11.73;9.57;;;18.80;32.60;;;;;;6316379;22;20466;-84
2022/03/13 09:47:45;;;;;;;14.27;8.50;;;18.60;33.10;;;;;;6318496;22;20411;-84
2022/03/13 09:50:13;;;;;;;16.07;7.77;;;18.10;32.80;;;;;;6320303;22;20424;-84
2022/03/13 09:52:41;;;;;;;14.13;8.57;;;18.20;33.40;;;;;;6313562;22;20453;-84
2022/03/13 09:55:10;;;;;;;9.00;7.80;;;18.70;33.80;;;;;;6311142;22;20403;-83
2022/03/13 09:57:40;;;;;;;9.93;8.90;;;18.20;33.50;;;;;;6310978;22;20457;-84
2022/03/13 10:00:09;;;;;;;10.57;9.00;;;18.30;33.30;;;;;;6313417;22;21548;-84
2022/03/13 10:02:38;;;;;;;9.43;8.43;;;18.10;33.70;;;;;;6315408;22;20401;-84
2022/03/13 10:05:09;;;;;;;10.10;9.00;;;18.20;34.20;;;;;;6314417;22;20399;-85
2022/03/13 10:07:51;;;;;;;10.47;8.67;;;18.10;33.90;;;;;;6312719;22;20412;-84
2022/03/13 10:10:18;;;;;;;12.07;9.50;;;17.30;34.10;;;;;;6315711;22;20388;-83
2022/03/13 10:12:46;;;;;;;11.37;9.33;;;16.80;34.40;;;;;;6322359;22;20497;-84
2022/03/13 10:15:13;;;;;;;9.33;8.33;;;17.00;35.10;;;;;;6313196;22;20475;-86
2022/03/13 10:17:41;;;;;;;11.93;8.37;;;17.40;35.30;;;;;;6314372;22;20389;-85
2022/03/13 10:20:16;;;;;;;11.30;9.43;;;17.50;35.30;;;;;;6314287;22;20439;-85
2022/03/13 10:22:44;;;;;;;11.83;9.70;;;17.50;35.10;;;;;;6326668;22;20383;-85
2022/03/13 10:25:13;;;;;;;12.03;8.90;;;17.70;34.60;;;;;;6330735;22;20435;-84
2022/03/13 10:27:41;;;;;;;11.80;9.40;;;17.70;34.80;;;;;;6330052;22;20435;-85
2022/03/13 10:30:09;;;;;;;14.03;10.40;;;17.40;34.70;;;;;;6329919;22;20408;-84
2022/03/13 10:32:37;;;;;;;13.97;8.63;;;17.40;35.10;;;;;;6330093;22;20443;-85
2022/03/13 10:35:05;;;;;;;13.70;8.70;;;17.50;35.20;;;;;;6321856;22;20516;-86
2022/03/13 10:37:38;;;;;;;9.60;8.00;;;16.90;35.20;;;;;;6322777;22;20415;-84
2022/03/13 10:40:13;;;;;;;12.80;9.60;;;16.90;35.20;;;;;;6325557;22;20399;-85
2022/03/13 10:42:43;;;;;;;12.80;9.83;;;16.20;34.90;;;;;;6324042;22;20593;-83
2022/03/13 10:45:12;;;;;;;11.77;8.70;;;15.80;35.70;;;;;;6322013;22;20395;-85
2022/03/13 10:47:39;;;;;;;10.43;8.77;;;15.80;36.30;;;;;;6321799;22;20409;-84
2022/03/13 10:50:07;;;;;;;11.63;8.63;;;15.40;36.40;;;;;;6317840;22;20171;-85
2022/03/13 10:52:41;;;;;;;10.98;9.48;;;15.00;37.20;;;;;;6317671;22;20189;-85
2022/03/13 10:55:24;;;;;;;10.25;9.02;;;14.50;37.90;;;;;;6315968;22;20186;-85
2022/03/13 10:57:52;;;;;;;9.57;8.55;;;14.30;38.70;;;;;;6317714;22;20170;-84
2022/03/13 11:00:21;;;;;;;10.05;8.30;;;14.30;39.00;;;;;;6318253;22;20190;-84
2022/03/13 11:02:48;;;;;;;11.90;8.90;;;14.50;40.00;;;;;;6318825;22;20169;-85
2022/03/13 11:05:15;;;;;;;10.23;9.23;;;14.70;40.10;;;;;;6318531;22;20193;-85
2022/03/13 11:07:45;;;;;;;10.43;8.98;;;14.50;39.40;;;;;;6318597;22;20177;-85
2022/03/13 11:10:12;;;;;;;12.10;9.02;;;14.40;39.40;;;;;;6319929;22;20173;-84
2022/03/13 11:12:40;;;;;;;16.23;8.85;;;14.10;39.10;;;;;;6325232;22;20205;-83
2022/03/13 11:15:11;;;;;;;11.07;7.97;;;14.40;39.80;;;;;;6328870;22;20165;-84
2022/03/13 11:17:40;;;;;;;13.15;9.60;;;14.30;39.60;;;;;;6327217;22;20161;-84
2022/03/13 11:20:09;;;;;;;9.25;7.70;;;14.40;40.80;;;;;;6327214;22;20277;-84
2022/03/13 11:22:37;;;;;;;9.25;7.95;;;14.20;40.00;;;;;;6327274;22;20184;-84
2022/03/13 11:25:07;;;;;;;10.15;9.05;;;14.60;39.50;;;;;;6327297;22;20200;-86
2022/03/13 11:27:36;;;;;;;9.48;8.18;;;14.40;39.90;;;;;;6321254;22;20226;-85
2022/03/13 11:30:06;;;;;;;8.45;7.63;;;14.50;39.50;;;;;;6321679;22;20181;-86
2022/03/13 11:32:40;;;;;;;10.90;7.00;;;14.30;38.40;;;;;;6320503;22;20192;-85
2022/03/13 11:35:27;;;;;;;10.93;7.90;;;14.10;39.00;;;;;;6326103;22;20239;-86
2022/03/13 11:37:55;;;;;;;13.07;9.32;;;14.20;39.60;;;;;;6327328;22;20201;-83
2022/03/13 11:40:33;;;;;;;12.50;8.90;;;14.30;39.40;;;;;;6323218;22;20193;-85
2022/03/13 11:43:12;;;;;;;10.93;8.75;;;14.10;39.80;;;;;;6315245;22;20177;-86
2022/03/13 11:45:40;;;;;;;9.88;8.18;;;14.20;39.40;;;;;;6326266;22;20543;-85
2022/03/13 11:48:40;;;;;;;10.90;8.13;;;14.10;39.40;;;;;;6317365;22;20170;-86
2022/03/13 11:51:07;;;;;;;8.90;7.60;;;14.00;39.30;;;;;;6313755;22;20204;-86
2022/03/13 11:53:49;;;;;;;11.15;8.68;;;14.00;39.80;;;;;;6316168;22;20201;-85
2022/03/13 11:56:29;;;;;;;7.95;7.15;;;13.90;39.80;;;;;;6317463;22;20529;-86
2022/03/13 11:59:01;;;;;;;10.00;8.20;;;14.00;40.20;;;;;;6314731;22;20165;-84
2022/03/13 12:01:36;;;;;;;10.13;7.55;;;13.90;39.40;;;;;;6317274;22;20242;-84
2022/03/13 12:04:25;;;;;;;9.35;7.43;;;14.10;39.90;;;;;;6314410;22;20653;-85
2022/03/13 12:06:56;;;;;;;11.98;7.78;;;14.20;39.90;;;;;;6316402;22;20213;-85
2022/03/13 12:09:32;;;;;;;9.45;7.80;;;14.10;38.60;;;;;;6323739;22;20636;-85
2022/03/13 12:12:06;;;;;;;11.00;7.68;;;14.10;38.70;;;;;;6325614;22;20219;-84
2022/03/13 12:15:01;;;;;;;11.43;8.10;;;14.10;38.60;;;;;;6325547;22;20187;-84
2022/03/13 12:17:30;;;;;;;10.07;7.68;;;14.10;38.60;;;;;;6324893;22;20162;-85
2022/03/13 12:19:59;;;;;;;9.48;7.95;;;14.00;38.50;;;;;;6324695;22;20158;-85
2022/03/13 12:22:28;;;;;;;10.02;8.18;;;14.00;39.10;;;;;;6324694;22;20212;-82
2022/03/13 12:24:57;;;;;;;10.35;7.95;;;14.10;39.10;;;;;;6320955;22;20181;-85
2022/03/13 12:27:26;;;;;;;11.47;9.27;;;14.10;38.70;;;;;;6314211;22;20493;-83
2022/03/13 12:29:56;;;;;;;9.30;8.35;;;14.10;39.00;;;;;;6316183;22;20973;-84
2022/03/13 12:32:33;;;;;;;10.75;7.85;;;14.30;39.00;;;;;;6316844;22;20251;-82
2022/03/13 12:35:01;;;;;;;13.63;9.02;;;14.30;38.80;;;;;;6316434;22;20161;-82
2022/03/13 12:37:29;;;;;;;10.43;7.72;;;14.30;38.90;;;;;;6322060;22;20204;-86
2022/03/13 12:39:59;;;;;;;8.80;7.90;;;14.40;39.00;;;;;;6317983;22;20213;-85
2022/03/13 12:42:30;;;;;;;7.55;6.35;;;14.40;38.90;;;;;;6314310;22;20208;-85
2022/03/13 12:45:09;;;;;;;9.73;7.25;;;14.50;39.40;;;;;;6313466;22;20217;-85
2022/03/13 12:47:39;;;;;;;10.77;8.30;;;14.60;38.80;;;;;;6314869;22;20356;-85
2022/03/13 12:50:10;;;;;;;12.40;7.50;;;14.50;38.70;;;;;;6317888;22;20197;-85
2022/03/13 12:52:37;;;;;;;10.43;7.55;;;14.40;39.30;;;;;;6318706;22;20162;-86
2022/03/13 12:55:07;;;;;;;8.43;7.22;;;14.40;39.60;;;;;;6316760;22;20205;-85
2022/03/13 12:57:36;;;;;;;14.23;7.65;;;14.40;39.90;;;;;;6315860;22;20173;-86